createdAt,value
2023-03-06T00:01:02.371Z,51.25
2023-03-06T00:04:08.204Z,50.75
2023-03-06T00:07:10.816Z,50.58
2023-03-06T00:10:26.017Z,50.38
2023-03-06T00:13:30.693Z,49.82
2023-03-06T00:16:34.045Z,49.58
2023-03-06T00:19:36.652Z,51.28
2023-03-06T00:22:40.636Z,50.98
2023-03-06T00:25:44.249Z,48.54
2023-03-06T00:28:47.342Z,49.10
2023-03-06T00:31:52.512Z,48.83
2023-03-06T00:34:56.526Z,49.90
2023-03-06T00:37:59.895Z,48.95
2023-03-06T00:41:13.257Z,49.30
2023-03-06T00:44:15.926Z,50.36
2023-03-06T00:47:19.601Z,50.01
2023-03-06T00:50:22.478Z,50.48
2023-03-06T00:53:26.185Z,50.79
2023-03-06T00:56:30.055Z,50.99
2023-03-06T00:59:33.413Z,51.13
2023-03-06T01:02:36.209Z,51.47
2023-03-06T01:05:40.658Z,50.89
2023-03-06T01:08:43.310Z,51.20
2023-03-06T01:11:46.877Z,51.78
2023-03-06T01:14:49.489Z,50.37
2023-03-06T01:17:54.586Z,51.10
2023-03-06T01:20:57.208Z,51.46
2023-03-06T01:24:00.364Z,51.68
2023-03-06T01:27:04.480Z,50.89
2023-03-06T01:30:08.478Z,50.81
2023-03-06T01:33:11.204Z,50.51
2023-03-06T01:36:14.393Z,50.89
2023-03-06T01:39:17.126Z,50.54
2023-03-06T01:42:20.374Z,51.22
2023-03-06T01:45:23.069Z,51.06
2023-03-06T01:48:26.563Z,51.03
2023-03-06T01:51:33.613Z,50.80
2023-03-06T01:54:44.544Z,51.14
2023-03-06T01:57:52.584Z,50.96
2023-03-06T02:00:55.915Z,50.23
2023-03-06T02:04:00.900Z,50.85
2023-03-06T02:07:06.614Z,50.22
2023-03-06T02:10:10.612Z,51.48
2023-03-06T02:13:13.553Z,50.05
2023-03-06T02:16:17.751Z,49.79
2023-03-06T02:19:58.207Z,49.74
2023-03-06T02:23:25.518Z,50.05
2023-03-06T02:26:30.025Z,49.11
2023-03-06T02:29:32.787Z,48.91
2023-03-06T02:32:36.542Z,49.21
2023-03-06T02:35:40.131Z,49.81
2023-03-06T02:38:48.897Z,49.07
2023-03-06T02:41:51.974Z,49.16
2023-03-06T02:44:59.346Z,48.71
2023-03-06T02:48:02.406Z,48.68
2023-03-06T02:51:05.852Z,49.19
2023-03-06T02:54:08.438Z,48.82
2023-03-06T02:57:12.351Z,49.76
2023-03-06T03:00:15.581Z,48.66
2023-03-06T03:03:19.202Z,48.62
2023-03-06T03:06:21.840Z,48.54
2023-03-06T03:09:25.526Z,49.21
2023-03-06T03:12:28.782Z,49.38
2023-03-06T03:15:32.002Z,48.93
2023-03-06T03:18:34.985Z,49.06
2023-03-06T03:21:39.924Z,48.83
2023-03-06T03:24:42.655Z,49.20
2023-03-06T03:27:46.978Z,49.30
2023-03-06T03:30:49.846Z,48.95
2023-03-06T03:33:53.554Z,49.35
2023-03-06T03:36:56.483Z,49.54
2023-03-06T03:39:59.894Z,50.38
2023-03-06T03:43:02.743Z,49.29
2023-03-06T03:46:06.217Z,49.13
2023-03-06T03:49:09.946Z,49.32
2023-03-06T03:52:13.561Z,49.61
2023-03-06T03:55:16.672Z,49.49
2023-03-06T03:58:20.213Z,49.42
2023-03-06T04:01:23.781Z,49.61
2023-03-06T04:04:26.898Z,49.72
2023-03-06T04:07:29.538Z,50.00
2023-03-06T04:10:34.360Z,51.17
2023-03-06T04:13:37.467Z,50.42
2023-03-06T04:16:41.339Z,50.47
2023-03-06T04:19:44.565Z,50.05
2023-03-06T04:22:47.962Z,50.43
2023-03-06T04:25:51.346Z,50.26
2023-03-06T04:28:56.251Z,50.49
2023-03-06T04:31:59.096Z,50.85
2023-03-06T04:35:02.718Z,51.45
2023-03-06T04:38:06.235Z,50.72
2023-03-06T04:41:09.528Z,51.65
2023-03-06T04:44:12.159Z,50.96
2023-03-06T04:47:16.952Z,51.46
2023-03-06T04:50:22.181Z,51.30
2023-03-06T04:53:25.930Z,52.12
2023-03-06T04:56:28.724Z,52.03
2023-03-06T04:59:31.842Z,52.54
2023-03-06T05:02:34.449Z,52.60
2023-03-06T05:05:37.622Z,52.72
2023-03-06T05:08:40.275Z,53.03
2023-03-06T05:11:43.475Z,52.37
2023-03-06T05:14:47.990Z,53.19
2023-03-06T05:17:51.417Z,53.75
2023-03-06T05:20:59.387Z,54.94
2023-03-06T05:24:02.536Z,54.89
2023-03-06T05:27:05.188Z,54.78
2023-03-06T05:30:12.292Z,52.52
2023-03-06T05:33:15.083Z,53.18
2023-03-06T05:36:18.231Z,52.84
2023-03-06T05:39:21.260Z,52.51
2023-03-06T05:42:24.289Z,53.07
2023-03-06T05:45:26.735Z,52.31
2023-03-06T05:48:30.320Z,53.80
2023-03-06T05:51:32.929Z,55.61
2023-03-06T05:54:37.249Z,54.18
2023-03-06T05:57:40.015Z,54.78
2023-03-06T06:00:43.221Z,54.77
2023-03-06T06:03:47.973Z,55.25
2023-03-06T06:06:55.769Z,54.99
2023-03-06T06:09:58.813Z,54.01
2023-03-06T06:13:01.813Z,54.30
2023-03-06T06:16:11.890Z,54.53
2023-03-06T06:19:18.778Z,53.84
2023-03-06T06:22:21.811Z,53.83
2023-03-06T06:25:24.950Z,54.91
2023-03-06T06:28:29.352Z,53.53
2023-03-06T06:31:32.842Z,53.89
2023-03-06T06:34:35.599Z,53.26
2023-03-06T06:37:41.434Z,53.47
2023-03-06T06:40:46.958Z,53.84
2023-03-06T06:44:04.272Z,53.53
2023-03-06T06:47:22.306Z,54.07
2023-03-06T06:50:28.376Z,54.85
2023-03-06T06:53:32.155Z,54.33
2023-03-06T06:56:36.201Z,54.12
2023-03-06T06:59:45.023Z,54.01
2023-03-06T07:02:51.267Z,54.58
2023-03-06T07:05:55.901Z,54.40
2023-03-06T07:08:58.795Z,54.75
2023-03-06T07:12:01.830Z,54.45
2023-03-06T07:15:07.092Z,55.17
2023-03-06T07:18:17.470Z,54.43
2023-03-06T07:21:20.354Z,54.47
2023-03-06T07:24:29.941Z,55.22
2023-03-06T07:27:34.767Z,54.72
2023-03-06T07:30:40.888Z,54.70
2023-03-06T07:33:43.744Z,54.48
2023-03-06T07:36:46.654Z,55.00
2023-03-06T07:39:49.753Z,55.79
2023-03-06T07:43:09.103Z,57.15
2023-03-06T07:46:17.356Z,57.64
2023-03-06T07:49:20.355Z,57.26
2023-03-06T07:52:23.732Z,57.11
2023-03-06T07:55:26.802Z,57.61
2023-03-06T07:58:32.195Z,57.31
2023-03-06T08:01:36.524Z,58.21
2023-03-06T08:04:42.207Z,57.42
2023-03-06T08:07:50.957Z,57.57
2023-03-06T08:10:54.205Z,57.98
2023-03-06T08:13:58.438Z,58.14
2023-03-06T08:17:03.227Z,58.06
2023-03-06T08:20:06.548Z,59.44
2023-03-06T08:23:10.885Z,59.59
2023-03-06T08:26:22.990Z,60.00
2023-03-06T08:29:26.864Z,60.36
2023-03-06T08:32:29.849Z,59.29
2023-03-06T08:35:33.246Z,59.53
2023-03-06T08:38:35.912Z,60.20
2023-03-06T08:41:42.176Z,59.47
2023-03-06T08:44:44.899Z,59.32
2023-03-06T08:47:48.021Z,58.99
2023-03-06T08:50:51.262Z,58.61
2023-03-06T08:53:55.511Z,58.10
2023-03-06T08:56:58.742Z,58.33
2023-03-06T09:00:01.873Z,56.71
2023-03-06T09:03:07.006Z,55.41
2023-03-06T09:06:16.334Z,54.52
2023-03-06T09:09:19.343Z,55.96
2023-03-06T09:12:40.384Z,56.05
2023-03-06T09:15:53.312Z,54.48
2023-03-06T09:18:59.075Z,53.62
2023-03-06T09:22:03.661Z,51.70
2023-03-06T09:25:07.285Z,50.10
2023-03-06T09:28:11.928Z,49.86
2023-03-06T09:31:18.655Z,49.94
2023-03-06T09:34:26.316Z,49.72
2023-03-06T09:37:30.093Z,48.39
2023-03-06T09:40:57.852Z,45.64
2023-03-06T09:44:05.250Z,41.78
2023-03-06T09:47:07.914Z,39.83
2023-03-06T09:50:19.463Z,36.84
2023-03-06T09:53:48.908Z,36.86
2023-03-06T09:56:52.106Z,35.17
2023-03-06T09:59:57.339Z,36.85
2023-03-06T10:03:03.499Z,36.83
2023-03-06T10:06:28.045Z,37.64
2023-03-06T10:09:46.815Z,39.68
2023-03-06T10:13:06.444Z,39.25
2023-03-06T10:16:25.301Z,40.88
2023-03-06T10:19:41.255Z,43.12
2023-03-06T10:23:05.390Z,44.04
2023-03-06T10:26:15.152Z,44.47
2023-03-06T10:30:00.104Z,43.94
2023-03-06T10:33:21.910Z,44.75
2023-03-06T10:36:30.012Z,46.26
2023-03-06T10:39:32.925Z,47.23
2023-03-06T10:42:35.750Z,47.14
2023-03-06T10:45:54.022Z,46.67
2023-03-06T10:48:59.749Z,47.15
2023-03-06T10:52:02.655Z,48.00
2023-03-06T10:55:26.257Z,49.18
2023-03-06T10:58:31.920Z,49.22
2023-03-06T11:01:35.838Z,49.04
2023-03-06T11:04:40.947Z,49.38
2023-03-06T11:07:56.611Z,49.81
2023-03-06T11:11:11.511Z,49.61
2023-03-06T11:14:20.859Z,49.00
2023-03-06T11:17:29.636Z,49.32
2023-03-06T11:20:51.149Z,49.00
2023-03-06T11:24:00.786Z,48.95
2023-03-06T11:27:35.819Z,48.55
2023-03-06T11:30:50.788Z,48.60
2023-03-06T11:34:02.607Z,48.80
2023-03-06T11:37:36.595Z,47.57
2023-03-06T11:40:58.561Z,46.75
2023-03-06T11:44:25.257Z,47.98
2023-03-06T11:47:46.400Z,48.07
2023-03-06T11:50:52.621Z,48.11
2023-03-06T11:53:59.885Z,48.22
2023-03-06T11:57:12.577Z,48.53
2023-03-06T12:00:28.088Z,48.27
2023-03-06T12:03:52.889Z,46.99
2023-03-06T12:07:10.801Z,47.05
2023-03-06T12:10:29.937Z,47.49
2023-03-06T12:14:23.356Z,47.56
2023-03-06T12:17:50.335Z,47.54
2023-03-06T12:21:32.527Z,46.86
2023-03-06T12:24:53.743Z,46.95
2023-03-06T12:28:18.172Z,47.24
2023-03-06T12:31:30.018Z,48.15
2023-03-06T12:35:14.574Z,47.45
2023-03-06T12:38:29.561Z,48.01
2023-03-06T12:41:59.323Z,48.46
2023-03-06T12:45:30.964Z,47.48
2023-03-06T12:48:38.705Z,47.12
2023-03-06T12:51:44.586Z,47.82
2023-03-06T12:54:48.360Z,47.89
2023-03-06T12:57:51.487Z,47.96
2023-03-06T13:01:05.895Z,48.42
2023-03-06T13:04:40.042Z,48.49
2023-03-06T13:07:52.835Z,48.94
2023-03-06T13:11:14.052Z,49.19
2023-03-06T13:14:26.529Z,49.88
2023-03-06T13:17:35.630Z,50.58
2023-03-06T13:20:45.025Z,51.23
2023-03-06T13:23:52.401Z,51.78
2023-03-06T13:27:04.868Z,51.57
2023-03-06T13:30:23.670Z,51.50
2023-03-06T13:33:27.251Z,51.21
2023-03-06T13:36:32.381Z,51.50
2023-03-06T13:39:55.110Z,52.39
2023-03-06T13:43:04.013Z,52.38
2023-03-06T13:46:26.423Z,52.47
2023-03-06T13:49:30.105Z,52.26
2023-03-06T13:52:43.749Z,51.96
2023-03-06T13:56:06.417Z,51.79
2023-03-06T14:00:03.022Z,52.47
2023-03-06T14:03:41.387Z,52.09
2023-03-06T14:06:52.643Z,52.34
2023-03-06T14:10:08.712Z,52.32
2023-03-06T14:13:23.441Z,52.70
2023-03-06T14:16:40.491Z,53.37
2023-03-06T14:19:51.915Z,53.56
2023-03-06T14:23:32.377Z,53.70
2023-03-06T14:26:43.910Z,53.81
2023-03-06T14:29:48.704Z,53.63
2023-03-06T14:32:54.744Z,53.94
2023-03-06T14:36:03.714Z,53.53
2023-03-06T14:39:35.350Z,54.00
2023-03-06T14:42:38.388Z,54.58
2023-03-06T14:45:53.202Z,54.62
2023-03-06T14:48:59.073Z,54.82
2023-03-06T14:52:02.357Z,54.80
2023-03-06T14:55:11.662Z,55.70
2023-03-06T14:58:19.976Z,56.06
2023-03-06T15:01:29.624Z,55.71
2023-03-06T15:04:40.799Z,56.08
2023-03-06T15:07:45.179Z,56.43
2023-03-06T15:10:59.570Z,56.01
2023-03-06T15:14:04.992Z,55.73
2023-03-06T15:17:20.006Z,56.42
2023-03-06T15:20:42.560Z,56.20
2023-03-06T15:23:47.977Z,56.49
2023-03-06T15:26:55.270Z,55.93
2023-03-06T15:30:30.410Z,56.19
2023-03-06T15:33:33.412Z,56.28
2023-03-06T15:37:00.844Z,56.20
2023-03-06T15:40:09.413Z,56.69
2023-03-06T15:43:12.393Z,56.74
2023-03-06T15:46:15.282Z,57.46
2023-03-06T15:49:20.599Z,57.87
2023-03-06T15:52:23.775Z,57.74
2023-03-06T15:55:27.113Z,57.94
2023-03-06T15:58:33.164Z,57.98
2023-03-06T16:01:37.427Z,57.92
2023-03-06T16:04:40.464Z,58.05
2023-03-06T16:07:43.833Z,59.09
2023-03-06T16:10:47.893Z,58.49
2023-03-06T16:13:51.553Z,58.57
2023-03-06T16:16:55.045Z,58.26
2023-03-06T16:19:58.110Z,58.20
2023-03-06T16:23:01.208Z,58.73
2023-03-06T16:26:04.472Z,58.68
2023-03-06T16:29:08.428Z,58.62
2023-03-06T16:32:11.724Z,59.14
2023-03-06T16:35:15.713Z,59.92
2023-03-06T16:38:18.623Z,59.12
2023-03-06T16:41:21.718Z,59.93
2023-03-06T16:44:24.610Z,60.10
2023-03-06T16:47:27.508Z,60.17
2023-03-06T16:50:33.576Z,60.45
2023-03-06T16:53:36.441Z,60.63
2023-03-06T16:56:39.319Z,60.43
2023-03-06T16:59:42.131Z,60.53
2023-03-06T17:02:47.896Z,60.28
2023-03-06T17:05:51.097Z,60.00
2023-03-06T17:08:54.285Z,60.24
2023-03-06T17:11:57.479Z,60.45
2023-03-06T17:15:00.406Z,60.55
2023-03-06T17:18:05.152Z,60.59
2023-03-06T17:21:09.055Z,60.56
2023-03-06T17:24:11.877Z,60.78
2023-03-06T17:27:14.739Z,61.49
2023-03-06T17:30:17.758Z,61.44
2023-03-06T17:33:20.624Z,61.43
2023-03-06T17:36:23.484Z,62.04
2023-03-06T17:39:26.337Z,61.61
2023-03-06T17:42:29.386Z,61.58
2023-03-06T17:45:34.221Z,61.89
2023-03-06T17:48:37.736Z,61.57
2023-03-06T17:51:40.708Z,61.75
2023-03-06T17:54:43.583Z,62.11
2023-03-06T17:57:46.398Z,61.60
2023-03-06T18:00:49.664Z,61.65
2023-03-06T18:03:53.114Z,61.75
2023-03-06T18:06:57.070Z,61.81
2023-03-06T18:10:00.246Z,62.16
2023-03-06T18:13:02.910Z,62.11
2023-03-06T18:16:08.083Z,62.04
2023-03-06T18:19:11.365Z,61.62
2023-03-06T18:22:18.604Z,62.32
2023-03-06T18:29:04.161Z,62.46
2023-03-06T18:32:10.846Z,62.02
2023-03-06T18:35:13.999Z,61.54
2023-03-06T18:38:18.821Z,61.78
2023-03-06T18:41:22.618Z,62.28
2023-03-06T18:44:27.829Z,62.21
2023-03-06T18:47:33.761Z,62.39
2023-03-06T18:50:37.618Z,62.44
2023-03-06T18:53:41.173Z,62.88
2023-03-06T18:56:45.598Z,63.13
2023-03-06T18:59:48.516Z,63.64
2023-03-06T19:02:52.122Z,63.36
2023-03-06T19:05:56.101Z,64.38
2023-03-06T19:09:01.803Z,65.53
2023-03-06T19:12:07.228Z,65.28
2023-03-06T19:15:10.543Z,65.33
2023-03-06T19:18:16.290Z,65.52
2023-03-06T19:21:22.061Z,65.88
2023-03-06T19:24:26.746Z,66.01
2023-03-06T19:27:30.184Z,65.54
2023-03-06T19:30:33.025Z,65.69
2023-03-06T19:33:39.292Z,66.28
2023-03-06T19:36:42.147Z,67.07
2023-03-06T19:39:45.084Z,67.05
2023-03-06T19:42:48.587Z,65.87
2023-03-06T19:45:51.533Z,65.58
2023-03-06T19:49:03.349Z,65.93
2023-03-06T19:52:09.211Z,66.08
2023-03-06T19:55:14.671Z,66.54
2023-03-06T19:58:20.303Z,66.08
2023-03-06T20:01:28.486Z,66.46
2023-03-06T20:04:34.302Z,65.87
2023-03-06T20:07:41.040Z,66.58
2023-03-06T20:10:44.178Z,65.81
2023-03-06T20:13:49.782Z,66.05
2023-03-06T20:16:52.962Z,65.45
2023-03-06T20:19:56.581Z,65.55
2023-03-06T20:23:04.766Z,66.57
2023-03-06T20:26:16.158Z,67.09
2023-03-06T20:29:20.577Z,67.35
2023-03-06T20:32:23.749Z,66.28
2023-03-06T20:35:31.857Z,65.36
2023-03-06T20:38:37.174Z,65.35
2023-03-06T20:41:42.277Z,65.58
2023-03-06T20:44:48.163Z,65.79
2023-03-06T20:47:56.207Z,66.42
2023-03-06T20:51:04.486Z,66.64
2023-03-06T20:54:14.957Z,65.86
2023-03-06T20:57:20.245Z,65.50
2023-03-06T21:00:33.312Z,66.78
2023-03-06T21:03:37.361Z,66.45
2023-03-06T21:06:47.036Z,65.81
2023-03-06T21:09:54.896Z,66.18
2023-03-06T21:13:01.336Z,66.32
2023-03-06T21:16:17.146Z,66.36
2023-03-06T21:19:31.231Z,66.30
2023-03-06T21:22:35.558Z,67.09
2023-03-06T21:25:52.428Z,67.50
2023-03-06T21:28:57.160Z,67.16
2023-03-06T21:32:02.104Z,67.03
2023-03-06T21:35:05.428Z,67.32
2023-03-06T21:38:08.494Z,67.76
2023-03-06T21:41:24.810Z,67.78
2023-03-06T21:44:33.529Z,68.02
2023-03-06T21:47:39.026Z,67.97
2023-03-06T21:50:42.732Z,67.96
2023-03-06T21:53:46.332Z,67.15
2023-03-06T21:56:49.594Z,66.97
2023-03-06T21:59:52.546Z,67.74
2023-03-06T22:02:55.521Z,67.80
2023-03-06T22:06:10.162Z,67.57
2023-03-06T22:09:15.000Z,68.25
2023-03-06T22:12:18.270Z,68.10
2023-03-06T22:15:21.920Z,66.81
2023-03-06T22:18:25.167Z,66.62
2023-03-06T22:21:27.814Z,66.72
2023-03-06T22:24:31.990Z,66.71
2023-03-06T22:27:34.406Z,67.23
2023-03-06T22:30:37.607Z,66.65
2023-03-06T22:33:40.812Z,66.48
2023-03-06T22:36:44.492Z,66.77
2023-03-06T22:39:48.065Z,67.70
2023-03-06T22:42:51.295Z,67.74
2023-03-06T22:45:54.409Z,67.32
2023-03-06T22:48:58.125Z,67.12
2023-03-06T22:52:01.988Z,67.32
2023-03-06T22:55:06.012Z,67.13
2023-03-06T22:58:09.973Z,67.11
2023-03-06T23:01:29.174Z,66.93
2023-03-06T23:04:31.939Z,67.52
2023-03-06T23:07:39.974Z,68.01
2023-03-06T23:10:42.574Z,67.97
2023-03-06T23:14:05.920Z,67.69
2023-03-06T23:17:27.474Z,68.06
2023-03-06T23:20:49.150Z,68.23
2023-03-06T23:24:10.395Z,68.42
2023-03-06T23:27:15.696Z,68.42
2023-03-06T23:30:18.764Z,68.74
2023-03-06T23:33:22.057Z,68.83
2023-03-06T23:36:24.960Z,68.83
2023-03-06T23:39:28.061Z,68.58
2023-03-06T23:42:30.848Z,68.71
2023-03-06T23:45:34.009Z,67.66
2023-03-06T23:48:38.589Z,68.33
2023-03-06T23:51:41.860Z,68.06
2023-03-06T23:54:44.417Z,67.93
2023-03-06T23:57:47.784Z,67.68
